Time;durP1;ratioP1;P1;durP2;ratioP2;P2;SDS_P1;SDS_P2;PMS_P1;PMS_P2;Temp;Humidity;BMP_temperature;BMP_pressure;BME280_temperature;BME280_humidity;BME280_pressure;Samples;Min_cycle;Max_cycle;Signal;HPM_P1;HPM_P2
2022/02/09 00:05:13;;;;;;;6.75;3.92;;;;;;;5.97;50.79;101842.80;1702180;82;21529;-72
2022/02/09 00:09:55;;;;;;;8.35;4.50;;;;;;;5.95;50.74;101843.19;1634267;84;21029;-70
2022/02/09 00:12:32;;;;;;;6.60;3.72;;;;;;;5.93;50.75;101833.27;1631549;86;21144;-69
2022/02/09 00:26:21;;;;;;;7.62;4.22;;;;;;;5.90;51.21;101823.28;1570762;90;21569;-72
2022/02/09 00:33:38;;;;;;;6.60;5.10;;;;;;;5.94;51.45;101813.02;1510560;94;21167;-73
2022/02/09 00:36:03;;;;;;;8.20;4.87;;;;;;;5.93;51.64;101810.42;1511049;94;21092;-72
2022/02/09 01:02:42;;;;;;;6.83;4.60;;;;;;;5.84;51.93;101793.09;1601602;88;21071;-71
2022/02/09 01:38:22;;;;;;;8.00;3.92;;;;;;;5.74;50.66;101820.89;1794669;80;21470;-70
2022/02/09 01:51:18;;;;;;;8.45;4.10;;;;;;;5.57;51.16;101823.63;1728438;81;21052;-71
2022/02/09 01:56:27;;;;;;;9.38;4.78;;;;;;;5.53;51.28;101825.72;1732198;81;22501;-71
2022/02/09 01:58:54;;;;;;;7.83;4.87;;;;;;;5.53;51.22;101828.30;1743334;81;21052;-71
2022/02/09 02:01:21;;;;;;;10.82;4.95;;;;;;;5.53;51.19;101826.59;1744688;81;21076;-71
2022/02/09 02:03:48;;;;;;;6.58;4.70;;;;;;;5.52;51.14;101817.09;1744281;81;21000;-72
2022/02/09 02:06:15;;;;;;;6.33;4.40;;;;;;;5.53;51.12;101810.23;1746417;81;21029;-71
2022/02/09 02:08:47;;;;;;;6.12;4.60;;;;;;;5.51;51.06;101808.92;1740156;81;21197;-71
2022/02/09 02:14:17;;;;;;;7.08;4.85;;;;;;;5.50;51.07;101815.36;1598673;87;21092;-71
2022/02/09 02:16:42;;;;;;;11.33;5.20;;;;;;;5.50;50.99;101817.94;1570735;89;21087;-71
2022/02/09 02:19:14;;;;;;;8.13;4.60;;;;;;;5.50;50.83;101825.69;1600577;87;21046;-71
2022/02/09 02:27:01;;;;;;;6.45;4.47;;;;;;;5.47;50.65;101826.91;1621770;87;21074;-70
2022/02/09 02:59:27;;;;;;;12.37;6.37;;;;;;;5.37;50.97;101834.06;1611428;87;21612;-71
2022/02/09 03:12:58;;;;;;;10.98;6.92;;;;;;;5.33;51.15;101820.66;1790438;80;21034;-71
2022/02/09 03:20:44;;;;;;;10.85;6.37;;;;;;;5.37;51.38;101823.73;1754929;80;21508;-71
2022/02/09 03:25:53;;;;;;;8.53;6.25;;;;;;;5.39;51.49;101821.64;1732257;81;21076;-71
2022/02/09 03:44:55;;;;;;;10.30;6.67;;;;;;;5.56;51.84;101813.72;1680806;83;21058;-72
2022/02/09 03:47:19;;;;;;;10.30;6.10;;;;;;;5.59;51.76;101812.90;1578778;88;21069;-72
2022/02/09 03:50:19;;;;;;;13.48;7.42;;;;;;;5.59;51.76;101813.77;1547380;90;21059;-72
2022/02/09 03:55:17;;;;;;;11.33;6.85;;;;;;;5.62;51.83;101815.55;1538680;91;21072;-72
2022/02/09 04:00:14;;;;;;;10.28;6.58;;;;;;;5.66;51.79;101807.00;1512263;93;21616;-71
2022/02/09 04:02:47;;;;;;;12.47;6.50;;;;;;;5.66;51.90;101805.30;1462340;96;21124;-72
2022/02/09 04:05:15;;;;;;;9.48;5.78;;;;;;;5.67;51.89;101806.13;1453637;97;21167;-71
2022/02/09 04:07:42;;;;;;;8.75;6.45;;;;;;;5.67;51.88;101803.55;1444918;98;21181;-72
2022/02/09 04:10:14;;;;;;;7.47;5.00;;;;;;;5.70;51.89;101813.94;1449197;98;21126;-72
2022/02/09 04:15:40;;;;;;;10.45;5.78;;;;;;;5.73;51.98;101806.22;1442627;98;21145;-72
2022/02/09 04:36:49;;;;;;;8.20;4.80;;;;;;;5.82;51.61;101802.49;1526125;92;21104;-72
2022/02/09 04:49:23;;;;;;;6.17;4.45;;;;;;;5.94;51.46;101813.44;1485342;96;21676;-71
2022/02/09 04:51:58;;;;;;;10.72;4.90;;;;;;;5.96;51.37;101822.08;1482676;96;21108;-71
2022/02/09 04:54:19;;;;;;;9.03;4.80;;;;;;;5.97;51.41;101824.70;1476322;95;21175;-71
2022/02/09 05:18:23;;;;;;;10.48;5.53;;;;;;;6.11;51.37;101842.55;1685425;84;21073;-72
2022/02/09 05:26:06;;;;;;;7.92;5.17;;;;;;;6.15;51.52;101847.33;1790669;79;21014;-72
2022/02/09 05:28:30;;;;;;;11.25;5.53;;;;;;;6.16;51.54;101849.92;1796486;79;20959;-72
2022/02/09 05:30:57;;;;;;;6.92;5.28;;;;;;;6.17;51.60;101852.97;1793377;80;21023;-70
2022/02/09 05:33:23;;;;;;;10.03;5.45;;;;;;;6.20;51.73;101857.31;1790978;79;21086;-70
2022/02/09 05:35:50;;;;;;;7.90;5.47;;;;;;;6.22;51.74;101861.64;1802563;79;21105;-70
2022/02/09 05:38:18;;;;;;;11.00;6.30;;;;;;;6.24;51.81;101859.97;1802403;79;21483;-70
2022/02/09 05:40:45;;;;;;;13.20;5.83;;;;;;;6.26;52.00;101862.16;1805153;79;20998;-70
2022/02/09 05:43:12;;;;;;;9.00;6.55;;;;;;;6.28;52.54;101867.33;1796119;79;21081;-71
2022/02/09 05:46:03;;;;;;;8.65;6.10;;;;;;;6.29;53.19;101858.71;1806160;79;21022;-71
2022/02/09 05:50:53;;;;;;;10.60;6.08;;;;;;;6.33;54.26;101851.02;1802291;79;21069;-71
2022/02/09 05:53:18;;;;;;;9.58;5.95;;;;;;;6.37;54.58;101842.88;1799004;79;21014;-71
2022/02/09 05:55:48;;;;;;;8.93;6.35;;;;;;;6.42;54.91;101840.81;1802273;79;20950;-71
2022/02/09 06:01:00;;;;;;;10.13;6.28;;;;;;;6.52;55.24;101847.83;1796858;79;20971;-71
2022/02/09 06:03:27;;;;;;;8.95;5.85;;;;;;;6.57;55.34;101842.27;1794930;79;21041;-71
2022/02/09 06:05:54;;;;;;;10.53;5.72;;;;;;;6.63;55.38;101839.33;1800164;79;21331;-71
2022/02/09 06:08:23;;;;;;;9.53;5.85;;;;;;;6.69;55.38;101851.03;1804697;79;21069;-71
2022/02/09 06:13:28;;;;;;;16.60;9.85;;;;;;;6.78;55.32;101847.27;1744932;81;21088;-72
2022/02/09 06:21:12;;;;;;;10.68;7.15;;;;;;;6.89;55.12;101854.70;1747483;81;21000;-71
2022/02/09 06:23:40;;;;;;;10.03;7.25;;;;;;;6.92;55.07;101859.50;1750549;81;21516;-72
2022/02/09 06:26:07;;;;;;;10.48;6.83;;;;;;;6.96;55.00;101865.57;1753130;81;21021;-72
2022/02/09 06:28:33;;;;;;;10.53;7.28;;;;;;;6.98;54.98;101863.86;1747818;81;21024;-73
2022/02/09 06:31:00;;;;;;;12.90;6.90;;;;;;;7.00;54.85;101846.63;1746672;81;21090;-72
2022/02/09 06:33:27;;;;;;;11.05;7.37;;;;;;;7.02;54.78;101852.69;1749920;82;21040;-72
2022/02/09 06:35:55;;;;;;;9.08;7.05;;;;;;;7.03;54.71;101857.88;1748386;81;21487;-72
2022/02/09 06:38:22;;;;;;;13.32;8.60;;;;;;;7.06;54.71;101862.22;1749482;81;21013;-72
2022/02/09 06:40:53;;;;;;;13.45;8.18;;;;;;;7.07;54.73;101851.00;1753847;82;21559;-71
2022/02/09 06:43:17;;;;;;;12.78;8.10;;;;;;;7.09;54.65;101854.50;1748017;81;21503;-72
2022/02/09 06:45:44;;;;;;;10.23;7.47;;;;;;;7.10;54.63;101848.45;1749536;80;21147;-73
2022/02/09 06:48:13;;;;;;;13.25;7.50;;;;;;;7.10;54.66;101848.45;1747858;81;21587;-73
2022/02/09 06:50:44;;;;;;;11.12;7.42;;;;;;;7.11;54.60;101845.03;1728960;82;21027;-73
2022/02/09 06:55:45;;;;;;;11.20;8.83;;;;;;;7.12;54.57;101846.75;1733773;81;21037;-73
2022/02/09 06:58:15;;;;;;;12.58;10.80;;;;;;;7.15;54.63;101846.80;1678200;85;21058;-72
2022/02/09 07:00:36;;;;;;;13.20;9.00;;;;;;;7.17;54.63;101848.97;1673589;85;21046;-73
2022/02/09 07:03:02;;;;;;;10.68;8.10;;;;;;;7.18;54.59;101849.39;1664701;85;21105;-72
2022/02/09 07:05:29;;;;;;;15.00;8.90;;;;;;;7.21;54.55;101859.80;1708737;82;21062;-72
2022/02/09 07:07:56;;;;;;;11.85;8.18;;;;;;;7.23;54.49;101856.34;1735211;82;21070;-72
2022/02/09 07:10:23;;;;;;;12.25;8.18;;;;;;;7.26;54.31;101857.67;1737774;82;21035;-72
2022/02/09 07:12:49;;;;;;;13.05;8.48;;;;;;;7.27;54.32;101865.87;1743027;81;21058;-72
2022/02/09 07:15:25;;;;;;;12.03;7.78;;;;;;;7.29;54.24;101865.91;1739298;81;21022;-72
2022/02/09 07:17:47;;;;;;;11.95;8.48;;;;;;;7.30;54.12;101862.45;1741202;81;21093;-72
2022/02/09 07:20:21;;;;;;;8.75;7.30;;;;;;;7.33;54.06;101863.36;1739296;81;21081;-72
2022/02/09 07:22:47;;;;;;;12.53;7.60;;;;;;;7.35;53.93;101865.96;1742766;81;22390;-72
2022/02/09 07:25:16;;;;;;;12.88;7.97;;;;;;;7.37;53.94;101868.13;1743877;81;21053;-72
2022/02/09 07:30:22;;;;;;;10.10;7.17;;;;;;;7.41;53.89;101872.48;1736966;81;21068;-73
2022/02/09 07:32:53;;;;;;;9.55;6.65;;;;;;;7.45;53.89;101872.95;1734105;81;21005;-72
2022/02/09 07:35:20;;;;;;;11.50;8.17;;;;;;;7.46;53.81;101869.48;1737848;81;21553;-72
2022/02/09 07:37:47;;;;;;;11.25;7.50;;;;;;;7.49;53.86;101870.83;1734968;81;21005;-72
2022/02/09 07:40:14;;;;;;;10.32;7.65;;;;;;;7.52;53.93;101862.22;1746286;81;21006;-73
2022/02/09 07:42:46;;;;;;;10.35;6.85;;;;;;;7.56;53.90;101865.28;1748454;81;21525;-72
2022/02/09 07:48:00;;;;;;;9.93;6.75;;;;;;;7.63;53.97;101870.51;1780743;79;21101;-73
2022/02/09 07:53:01;;;;;;;9.95;6.55;;;;;;;7.70;54.02;101861.94;1798335;79;21471;-72
2022/02/09 07:55:20;;;;;;;10.53;7.15;;;;;;;7.76;54.06;101864.58;1797816;79;21046;-72
2022/02/09 07:57:46;;;;;;;10.30;6.72;;;;;;;7.83;54.19;101868.08;1797079;79;21058;-72
2022/02/09 08:00:14;;;;;;;8.63;6.35;;;;;;;7.90;54.26;101866.83;1799503;79;20967;-72
2022/02/09 08:02:45;;;;;;;7.45;5.83;;;;;;;7.98;54.27;101874.22;1800641;79;21011;-73
2022/02/09 08:05:12;;;;;;;8.90;5.87;;;;;;;8.04;54.24;101882.03;1798671;79;21054;-71
2022/02/09 08:07:38;;;;;;;8.73;6.37;;;;;;;8.10;54.15;101869.11;1801576;79;20986;-72
2022/02/09 08:10:15;;;;;;;8.70;6.72;;;;;;;8.16;54.10;101878.22;1800883;79;21006;-71
2022/02/09 08:20:23;;;;;;;8.55;6.30;;;;;;;8.21;54.15;101881.72;1797532;79;20995;-71
2022/02/09 08:20:27;;;;;;;7.65;5.67;;;;;;;8.31;54.29;101877.89;1801417;79;21471;-72
2022/02/09 08:31:43;;;;;;;7.03;5.60;;;;;;;8.43;54.14;101883.17;1726833;82;21057;-72
2022/02/09 08:33:41;;;;;;;9.40;6.33;;;;;;;8.41;54.30;101888.78;1725864;82;21524;-71
2022/02/09 08:36:07;;;;;;;6.67;5.50;;;;;;;8.38;54.60;101892.64;1723570;82;21061;-71
2022/02/09 08:38:36;;;;;;;12.78;5.92;;;;;;;8.39;54.73;101896.98;1729646;81;21151;-72
2022/02/09 08:41:03;;;;;;;8.38;6.05;;;;;;;8.39;54.80;101900.42;1726521;81;21006;-72
2022/02/09 08:43:30;;;;;;;10.20;6.08;;;;;;;8.40;54.90;101896.98;1727827;81;20993;-71
2022/02/09 08:45:56;;;;;;;6.20;5.50;;;;;;;8.42;55.09;101902.17;1727343;81;20994;-72
2022/02/09 08:48:22;;;;;;;7.80;6.15;;;;;;;8.41;55.21;101906.48;1727803;81;21088;-71
2022/02/09 08:50:51;;;;;;;6.85;5.28;;;;;;;8.39;55.20;101905.61;1723996;82;21081;-72
2022/02/09 08:53:18;;;;;;;6.40;5.50;;;;;;;8.38;55.32;101909.08;1727017;81;21013;-72
2022/02/09 08:55:46;;;;;;;7.25;5.75;;;;;;;8.36;55.45;101913.81;1726478;81;21535;-72
2022/02/09 08:58:15;;;;;;;7.83;6.80;;;;;;;8.33;55.67;101909.47;1731727;82;21077;-71
2022/02/09 09:00:42;;;;;;;7.80;6.62;;;;;;;8.34;55.68;101915.53;1725253;81;20998;-72
2022/02/09 09:03:17;;;;;;;9.83;6.90;;;;;;;8.33;55.76;101910.77;1786146;79;20962;-72
2022/02/09 09:05:46;;;;;;;7.15;6.42;;;;;;;8.36;55.82;101910.80;1802193;79;21015;-72
2022/02/09 09:08:26;;;;;;;7.05;5.62;;;;;;;8.35;55.67;101906.88;1799028;79;21050;-72
2022/02/09 09:10:49;;;;;;;6.55;5.67;;;;;;;8.35;55.82;101915.95;1797047;79;21002;-72
2022/02/09 10:02:51;;;;;;;7.62;5.58;;;;;;;8.70;55.64;101893.64;1798915;79;20979;-71
2022/02/09 10:05:49;;;;;;;7.92;5.25;;;;;;;8.77;55.56;101900.61;1796593;79;21049;-71
2022/02/09 10:31:23;;;;;;;5.72;4.70;;;;;;;9.19;54.75;101898.13;1794603;80;21556;-71
2022/02/09 10:33:32;;;;;;;6.40;5.00;;;;;;;9.22;54.95;101891.65;1769008;80;21138;-71
2022/02/09 10:36:18;;;;;;;6.30;5.50;;;;;;;9.31;54.81;101898.17;1736488;80;21566;-71
2022/02/09 10:38:44;;;;;;;8.48;5.00;;;;;;;9.37;54.69;101894.28;1721297;81;21206;-71
2022/02/09 10:41:16;;;;;;;6.83;5.67;;;;;;;9.45;54.56;101899.48;1748522;81;21026;-72
2022/02/09 10:43:45;;;;;;;5.15;4.60;;;;;;;9.50;54.39;101899.91;1746382;81;21078;-72
2022/02/09 10:46:20;;;;;;;5.97;5.37;;;;;;;9.54;54.37;101904.23;1736961;81;21021;-71
2022/02/09 10:48:56;;;;;;;6.87;5.85;;;;;;;9.60;54.31;101908.59;1743178;80;21079;-71
2022/02/09 10:51:39;;;;;;;7.40;6.03;;;;;;;9.66;54.23;101917.27;1747275;81;21030;-71
2022/02/09 10:54:11;;;;;;;6.35;5.08;;;;;;;9.68;53.96;101919.42;1704441;83;21015;-71
2022/02/09 10:56:41;;;;;;;6.20;4.90;;;;;;;9.72;54.01;101922.45;1693060;83;21474;-71
2022/02/09 10:59:10;;;;;;;7.17;5.97;;;;;;;9.76;54.02;101926.80;1704464;83;21046;-71
2022/02/09 11:01:37;;;;;;;7.03;5.28;;;;;;;9.83;53.89;101927.20;1724898;83;21010;-72
2022/02/09 11:04:05;;;;;;;6.42;5.62;;;;;;;9.90;53.53;101932.41;1722819;80;21145;-72
2022/02/09 11:06:37;;;;;;;7.65;6.65;;;;;;;9.94;53.20;101925.03;1711029;81;21050;-71
2022/02/09 11:09:06;;;;;;;6.55;4.97;;;;;;;9.96;53.18;101929.80;1713625;82;21010;-71
2022/02/09 11:11:37;;;;;;;5.70;4.80;;;;;;;9.98;53.15;101924.16;1692795;83;21091;-72
2022/02/09 11:14:02;;;;;;;5.20;4.70;;;;;;;10.02;52.92;101932.39;1701841;83;21575;-71
2022/02/09 11:16:30;;;;;;;6.53;5.05;;;;;;;10.06;52.75;101935.42;1700752;83;21098;-72
2022/02/09 11:18:57;;;;;;;5.15;4.65;;;;;;;10.09;52.78;101923.73;1708228;83;21160;-69
2022/02/09 11:21:32;;;;;;;6.08;5.00;;;;;;;10.12;52.74;101939.38;1695147;83;21133;-70
2022/02/09 11:24:06;;;;;;;6.12;5.22;;;;;;;10.18;52.54;101935.47;1683878;84;21063;-70
2022/02/09 11:26:41;;;;;;;5.17;4.67;;;;;;;10.20;52.27;101944.13;1698406;83;21091;-69
2022/02/09 11:58:28;;;;;;;6.17;4.40;;;;;;;10.40;51.33;101943.66;1605124;88;21099;-69
2022/02/09 12:00:49;;;;;;;5.85;3.95;;;;;;;10.51;51.19;101941.87;1598426;88;21076;-72
2022/02/09 12:11:40;;;;;;;5.33;3.50;;;;;;;10.77;50.02;101955.70;1607542;88;21087;-70
2022/02/09 12:17:02;;;;;;;5.45;3.45;;;;;;;10.85;49.49;101960.44;1606844;86;21121;-70
2022/02/09 12:19:27;;;;;;;4.60;3.30;;;;;;;10.90;49.08;101965.17;1654665;84;21046;-70
2022/02/09 12:21:59;;;;;;;4.67;2.98;;;;;;;10.94;48.63;101964.29;1666641;85;21594;-70
2022/02/09 12:24:34;;;;;;;3.98;2.95;;;;;;;10.93;48.15;101974.30;1660584;84;21530;-70
2022/02/09 12:29:47;;;;;;;2.70;2.42;;;;;;;10.90;47.75;101986.01;1570757;90;21564;-70
2022/02/09 12:32:23;;;;;;;3.60;2.47;;;;;;;10.85;47.38;101990.38;1567095;89;21071;-71
2022/02/09 12:34:57;;;;;;;6.37;3.15;;;;;;;10.81;47.43;101991.69;1586498;88;21111;-70
2022/02/09 12:37:26;;;;;;;4.12;3.37;;;;;;;10.74;47.90;101999.11;1579795;88;21130;-71
2022/02/09 12:40:03;;;;;;;3.50;2.47;;;;;;;10.70;48.21;101991.72;1585402;89;21330;-71
2022/02/09 12:42:38;;;;;;;3.90;3.17;;;;;;;10.67;48.42;102003.46;1576265;89;21080;-71
2022/02/09 12:45:09;;;;;;;3.62;2.50;;;;;;;10.64;48.57;101999.55;1529430;93;21090;-71
2022/02/09 12:47:49;;;;;;;6.12;3.33;;;;;;;10.63;48.70;102001.27;1507824;94;21195;-71
2022/02/09 12:50:24;;;;;;;5.80;2.50;;;;;;;10.61;48.66;102007.38;1524659;91;21127;-71
2022/02/09 12:52:51;;;;;;;3.58;2.50;;;;;;;10.59;48.75;102009.96;1556499;91;21071;-70
2022/02/09 12:55:29;;;;;;;5.05;2.72;;;;;;;10.61;48.50;102012.59;1553407;91;21095;-71
2022/02/09 12:58:01;;;;;;;3.52;2.20;;;;;;;10.61;48.33;102017.80;1549347;90;21166;-70
2022/02/09 13:00:42;;;;;;;5.33;2.33;;;;;;;10.60;48.24;102019.95;1514273;93;21113;-71
2022/02/09 13:03:15;;;;;;;4.35;2.50;;;;;;;10.61;48.09;102025.60;1505646;94;21100;-71
2022/02/09 13:05:52;;;;;;;5.25;3.02;;;;;;;10.61;48.09;102028.20;1554714;91;21697;-71
2022/02/09 13:08:25;;;;;;;4.17;2.50;;;;;;;10.61;47.85;102032.11;1552417;91;21095;-72
2022/02/09 13:11:05;;;;;;;4.42;2.77;;;;;;;10.61;47.94;102033.41;1519194;91;21075;-71
2022/02/09 13:13:31;;;;;;;8.00;3.47;;;;;;;10.62;47.93;102040.33;1535844;92;21624;-71
2022/02/09 13:16:17;;;;;;;4.30;2.87;;;;;;;10.63;47.81;102044.68;1550052;91;21075;-71
2022/02/09 13:53:43;;;;;;;6.22;4.28;;;;;;;10.37;48.01;102086.33;1545242;91;22345;-70
2022/02/09 14:04:42;;;;;;;10.08;4.83;;;;;;;10.30;46.84;102101.94;1555080;91;21589;-70
2022/02/09 14:12:06;;;;;;;4.37;2.80;;;;;;;10.25;46.83;102115.36;1481332;94;21134;-71
2022/02/09 14:50:48;;;;;;;6.00;2.80;;;;;;;10.08;46.63;102145.63;1743005;81;21572;-71
2022/02/09 14:52:37;;;;;;;5.30;3.17;;;;;;;10.07;46.86;102166.02;1743900;81;21029;-71
2022/02/09 14:57:53;;;;;;;14.10;7.72;;;;;;;10.06;47.07;102165.56;1739143;81;21552;-71
2022/02/09 15:00:19;;;;;;;6.80;3.67;;;;;;;10.04;47.14;102163.40;1787296;79;21011;-71
2022/02/09 15:08:11;;;;;;;6.50;3.35;;;;;;;9.98;47.59;102167.28;1802576;79;21545;-70
2022/02/09 15:10:35;;;;;;;5.28;2.72;;;;;;;9.98;47.56;102168.58;1794341;79;21038;-71
2022/02/09 15:13:06;;;;;;;7.78;5.28;;;;;;;10.00;47.54;102172.05;1791724;79;21521;-70
2022/02/09 15:15:48;;;;;;;9.20;6.22;;;;;;;10.01;47.50;102173.80;1798727;79;21026;-71
2022/02/09 15:21:02;;;;;;;9.95;4.62;;;;;;;10.03;47.43;102185.95;1798539;80;20414;-71
2022/02/09 15:23:17;;;;;;;8.83;5.53;;;;;;;10.02;47.26;102187.23;1796270;79;21058;-71
2022/02/09 15:25:46;;;;;;;9.20;6.67;;;;;;;10.01;47.11;102186.81;1798174;79;22880;-70
2022/02/09 15:28:13;;;;;;;6.87;4.17;;;;;;;9.99;47.10;102197.64;1798573;80;20995;-71
2022/02/09 15:30:49;;;;;;;7.55;4.40;;;;;;;10.00;47.09;102200.66;1798956;80;21037;-71
2022/02/09 15:33:11;;;;;;;7.08;3.98;;;;;;;9.99;47.08;102208.04;1797055;79;20999;-71
2022/02/09 15:35:40;;;;;;;7.70;4.03;;;;;;;10.00;47.12;102196.76;1798413;80;20971;-69
2022/02/09 15:40:45;;;;;;;4.78;3.10;;;;;;;10.02;47.16;102201.53;1720957;82;21183;-69
2022/02/09 15:43:23;;;;;;;7.78;3.37;;;;;;;10.02;47.08;102209.33;1715814;82;21089;-70
2022/02/09 16:46:57;;;;;;;14.23;7.03;;;;;;;9.82;48.71;102308.94;1571271;90;21034;-71
2022/02/09 16:49:31;;;;;;;10.88;6.17;;;;;;;9.80;48.66;102308.06;1572221;89;21690;-71
2022/02/09 17:21:12;;;;;;;14.35;9.03;;;;;;;9.78;49.86;102321.48;1502249;92;21712;-72
2022/02/09 17:23:39;;;;;;;10.13;6.97;;;;;;;9.77;49.80;102321.44;1512613;93;21082;-72
2022/02/09 17:26:06;;;;;;;9.68;7.50;;;;;;;9.72;49.81;102330.54;1516925;92;21116;-71
2022/02/09 17:28:33;;;;;;;8.43;5.40;;;;;;;9.70;49.92;102336.16;1514017;93;21065;-70
2022/02/09 17:34:01;;;;;;;10.18;5.85;;;;;;;9.70;49.99;102340.05;1551826;92;21535;-71
2022/02/09 17:55:33;;;;;;;10.32;6.08;;;;;;;9.71;50.50;102352.17;1675546;84;21018;-71
2022/02/09 17:57:54;;;;;;;;;;;;;;;9.71;50.48;102361.27;1688431;83;21055;-71
2022/02/09 18:00:17;;;;;;;13.15;7.30;;;;;;;9.72;50.49;102361.73;1739495;81;20237;-71
2022/02/09 18:02:50;;;;;;;11.60;6.40;;;;;;;9.72;50.48;102363.45;1751083;81;21459;-71
2022/02/09 18:05:22;;;;;;;17.60;8.50;;;;;;;9.70;50.60;102363.45;1745803;81;21517;-71
2022/02/09 18:07:50;;;;;;;14.40;9.40;;;;;;;9.67;50.68;102363.41;1737368;81;21580;-71
2022/02/09 18:13:20;;;;;;;17.82;9.95;;;;;;;9.65;50.69;102375.52;1741184;81;21091;-70
2022/02/09 18:29:08;;;;;;;13.08;9.10;;;;;;;9.63;51.01;102399.34;1734601;82;21133;-70
2022/02/09 18:31:55;;;;;;;14.00;9.38;;;;;;;9.64;50.93;102398.46;1734699;82;21031;-69
2022/02/09 18:47:46;;;;;;;15.00;9.33;;;;;;;9.64;50.49;102413.20;1653226;85;21137;-70
2022/02/09 19:03:39;;;;;;;15.38;8.63;;;;;;;9.48;49.90;102417.38;1722811;82;21022;-70
2022/02/09 19:06:19;;;;;;;11.20;7.03;;;;;;;9.41;49.84;102414.30;1701414;83;21037;-71
2022/02/09 19:14:44;;;;;;;10.75;5.35;;;;;;;9.37;49.53;102437.64;1736373;82;20986;-70
2022/02/09 19:17:09;;;;;;;10.60;5.47;;;;;;;9.35;49.46;102435.03;1738125;81;21073;-69
2022/02/09 19:30:39;;;;;;;11.20;5.72;;;;;;;9.26;48.69;102431.45;1681009;84;21604;-69
2022/02/09 19:44:36;;;;;;;6.97;4.45;;;;;;;9.29;48.37;102444.06;1692178;82;21069;-69
2022/02/09 19:49:13;;;;;;;7.30;3.67;;;;;;;9.26;48.14;102441.84;1722929;82;21026;-70
2022/02/09 19:51:50;;;;;;;6.55;3.90;;;;;;;9.24;48.09;102444.85;1717335;82;21102;-69
2022/02/09 19:54:25;;;;;;;6.62;4.12;;;;;;;9.20;48.05;102447.85;1717992;82;21557;-70
2022/02/09 19:56:50;;;;;;;7.12;4.25;;;;;;;9.16;48.00;102448.67;1719240;82;21070;-70
2022/02/09 19:59:17;;;;;;;7.55;4.40;;;;;;;9.12;47.98;102454.69;1703720;82;21604;-69
2022/02/09 20:01:43;;;;;;;5.25;3.35;;;;;;;9.10;48.07;102447.73;1703602;83;21054;-70
2022/02/09 20:04:10;;;;;;;8.83;4.12;;;;;;;9.08;48.08;102445.12;1723715;82;21054;-70
2022/02/09 20:06:36;;;;;;;8.58;5.22;;;;;;;9.06;48.18;102452.03;1724826;82;21133;-70
2022/02/09 20:09:03;;;;;;;8.13;4.28;;;;;;;9.04;48.24;102451.14;1724448;81;21006;-70
2022/02/09 20:11:30;;;;;;;8.73;5.33;;;;;;;9.03;48.32;102454.58;1715829;81;21076;-70
2022/02/09 20:13:57;;;;;;;8.60;5.25;;;;;;;9.00;48.42;102454.10;1711425;82;21046;-69
2022/02/09 20:16:24;;;;;;;12.10;5.40;;;;;;;9.00;48.48;102455.86;1728119;82;21045;-70
2022/02/09 20:18:51;;;;;;;9.83;4.85;;;;;;;8.97;48.50;102458.40;1753586;80;21115;-70
2022/02/09 20:21:22;;;;;;;7.67;4.50;;;;;;;8.96;48.46;102465.77;1800273;79;21029;-70
2022/02/09 20:23:50;;;;;;;10.50;5.28;;;;;;;8.93;48.43;102461.81;1801561;79;21006;-70
2022/02/09 20:26:18;;;;;;;9.55;5.35;;;;;;;8.91;48.30;102462.22;1803635;79;20963;-70
2022/02/09 20:28:52;;;;;;;7.50;4.20;;;;;;;8.89;48.20;102458.73;1799464;79;20955;-70
2022/02/09 20:31:19;;;;;;;9.75;5.65;;;;;;;8.87;48.13;102452.23;1788804;79;21061;-70
2022/02/09 20:33:48;;;;;;;10.95;4.95;;;;;;;8.84;48.07;102449.59;1796321;79;21053;-70
2022/02/09 20:36:13;;;;;;;7.30;4.37;;;;;;;8.78;48.03;102448.64;1796316;79;21549;-70
2022/02/09 20:38:40;;;;;;;6.30;3.98;;;;;;;8.70;47.97;102448.97;1797197;79;21010;-70
2022/02/09 20:41:09;;;;;;;8.10;5.08;;;;;;;8.61;47.85;102448.88;1794874;79;21529;-70
2022/02/09 20:43:43;;;;;;;10.10;5.78;;;;;;;8.53;47.96;102449.20;1777839;79;21002;-69
2022/02/09 20:46:07;;;;;;;9.73;5.78;;;;;;;8.50;48.01;102462.11;1795818;79;21003;-70
2022/02/09 20:48:34;;;;;;;10.35;5.70;;;;;;;8.50;48.01;102456.50;1798586;80;20983;-70
2022/02/09 20:51:01;;;;;;;10.50;6.65;;;;;;;8.53;48.06;102469.95;1800398;79;21026;-70
2022/02/09 20:53:28;;;;;;;12.50;7.22;;;;;;;8.56;48.14;102480.36;1802092;79;21038;-70
2022/02/09 20:55:55;;;;;;;16.17;7.87;;;;;;;8.57;48.05;102482.12;1803061;79;21034;-70
2022/02/09 20:58:22;;;;;;;18.90;9.33;;;;;;;8.57;48.07;102483.41;1803169;79;20982;-72
2022/02/09 21:00:59;;;;;;;18.98;9.85;;;;;;;8.57;48.02;102489.90;1800489;79;20978;-70
2022/02/09 21:03:40;;;;;;;14.18;9.00;;;;;;;8.57;47.94;102501.58;1792341;79;21058;-70
2022/02/09 21:06:10;;;;;;;15.28;9.48;;;;;;;8.53;47.87;102493.30;1800633;79;21041;-70
2022/02/09 21:21:53;;;;;;;10.25;5.97;;;;;;;8.34;48.53;102496.47;1754030;81;21090;-70
2022/02/09 21:24:37;;;;;;;10.15;6.33;;;;;;;8.34;48.70;102500.36;1746494;81;21032;-70
2022/02/09 21:27:14;;;;;;;9.73;6.05;;;;;;;8.35;48.77;102493.02;1749042;81;21528;-70
2022/02/09 21:32:38;;;;;;;12.55;7.10;;;;;;;8.39;48.67;102507.80;1748420;81;21037;-70
2022/02/09 21:53:57;;;;;;;7.50;3.90;;;;;;;8.18;48.71;102513.05;1700543;83;21085;-71
2022/02/09 21:56:35;;;;;;;7.43;3.93;;;;;;;8.14;48.82;102516.86;1698457;83;21096;-70
2022/02/09 21:59:15;;;;;;;7.15;3.85;;;;;;;8.10;48.82;102509.46;1696893;83;21497;-70
2022/02/09 22:23:10;;;;;;;7.08;4.62;;;;;;;8.09;49.12;102510.33;1679031;83;21569;-70
2022/02/09 22:28:01;;;;;;;8.65;4.30;;;;;;;8.02;49.28;102517.54;1669561;84;21029;-70
2022/02/09 22:55:01;;;;;;;7.00;4.62;;;;;;;7.88;49.32;102524.22;1627919;86;21112;-69
2022/02/09 23:00:03;;;;;;;7.03;4.03;;;;;;;7.86;49.23;102525.91;1588406;88;21696;-70
2022/02/09 23:07:28;;;;;;;10.03;4.45;;;;;;;7.74;49.15;102514.04;1537492;91;21133;-69
